sensor_id;sensor_type;location;lat;lon;timestamp;P1;durP1;ratioP1;P2;durP2;ratioP2
17372;SDS011;8803;48.116;11.590;2023-04-08T00:01:42;5.97;;;5.37;;
17372;SDS011;8803;48.116;11.590;2023-04-08T00:03:56;6.90;;;5.67;;
17372;SDS011;8803;48.116;11.590;2023-04-08T00:05:59;5.87;;;5.27;;
17372;SDS011;8803;48.116;11.590;2023-04-08T00:08:14;7.30;;;5.87;;
17372;SDS011;8803;48.116;11.590;2023-04-08T00:10:18;5.90;;;5.30;;
17372;SDS011;8803;48.116;11.590;2023-04-08T00:12:22;6.57;;;5.80;;
17372;SDS011;8803;48.116;11.590;2023-04-08T00:14:26;6.90;;;5.37;;
17372;SDS011;8803;48.116;11.590;2023-04-08T00:16:40;6.70;;;6.00;;
17372;SDS011;8803;48.116;11.590;2023-04-08T00:18:44;6.50;;;5.63;;
17372;SDS011;8803;48.116;11.590;2023-04-08T00:20:47;5.10;;;4.60;;
17372;SDS011;8803;48.116;11.590;2023-04-08T00:23:00;6.17;;;5.57;;
17372;SDS011;8803;48.116;11.590;2023-04-08T00:25:05;7.83;;;6.23;;
17372;SDS011;8803;48.116;11.590;2023-04-08T00:27:18;6.47;;;5.10;;
17372;SDS011;8803;48.116;11.590;2023-04-08T00:29:22;5.23;;;4.73;;
17372;SDS011;8803;48.116;11.590;2023-04-08T00:31:26;5.50;;;5.00;;
17372;SDS011;8803;48.116;11.590;2023-04-08T00:33:30;6.67;;;5.30;;
17372;SDS011;8803;48.116;11.590;2023-04-08T00:35:42;6.27;;;4.90;;
17372;SDS011;8803;48.116;11.590;2023-04-08T00:37:47;5.53;;;4.83;;
17372;SDS011;8803;48.116;11.590;2023-04-08T00:39:59;5.63;;;5.13;;
17372;SDS011;8803;48.116;11.590;2023-04-08T00:42:04;5.63;;;4.43;;
17372;SDS011;8803;48.116;11.590;2023-04-08T00:44:08;5.73;;;4.50;;
17372;SDS011;8803;48.116;11.590;2023-04-08T00:46:12;5.17;;;4.40;;
17372;SDS011;8803;48.116;11.590;2023-04-08T00:48:25;5.33;;;4.83;;
17372;SDS011;8803;48.116;11.590;2023-04-08T00:50:31;7.80;;;4.50;;
17372;SDS011;8803;48.116;11.590;2023-04-08T00:52:35;5.83;;;4.40;;
17372;SDS011;8803;48.116;11.590;2023-04-08T00:54:48;4.70;;;4.27;;
17372;SDS011;8803;48.116;11.590;2023-04-08T00:56:51;5.10;;;4.60;;
17372;SDS011;8803;48.116;11.590;2023-04-08T00:59:05;4.67;;;4.10;;
17372;SDS011;8803;48.116;11.590;2023-04-08T01:01:09;5.07;;;4.53;;
17372;SDS011;8803;48.116;11.590;2023-04-08T01:03:17;5.10;;;3.97;;
17372;SDS011;8803;48.116;11.590;2023-04-08T01:07:36;7.43;;;4.20;;
17372;SDS011;8803;48.116;11.590;2023-04-08T01:09:43;5.20;;;4.53;;
17372;SDS011;8803;48.116;11.590;2023-04-08T01:11:49;4.70;;;4.10;;
17372;SDS011;8803;48.116;11.590;2023-04-08T01:13:55;4.50;;;4.00;;
17372;SDS011;8803;48.116;11.590;2023-04-08T01:15:59;4.73;;;4.23;;
17372;SDS011;8803;48.116;11.590;2023-04-08T01:18:12;6.23;;;4.33;;
17372;SDS011;8803;48.116;11.590;2023-04-08T01:20:18;4.40;;;3.80;;
17372;SDS011;8803;48.116;11.590;2023-04-08T01:22:24;4.73;;;4.00;;
17372;SDS011;8803;48.116;11.590;2023-04-08T01:24:32;5.00;;;4.40;;
17372;SDS011;8803;48.116;11.590;2023-04-08T01:26:45;4.47;;;4.07;;
17372;SDS011;8803;48.116;11.590;2023-04-08T01:28:51;4.00;;;3.63;;
17372;SDS011;8803;48.116;11.590;2023-04-08T01:31:08;4.63;;;4.13;;
17372;SDS011;8803;48.116;11.590;2023-04-08T01:35:26;4.60;;;4.20;;
17372;SDS011;8803;48.116;11.590;2023-04-08T01:37:32;4.57;;;3.77;;
17372;SDS011;8803;48.116;11.590;2023-04-08T01:39:46;5.03;;;4.30;;
17372;SDS011;8803;48.116;11.590;2023-04-08T01:41:52;4.93;;;4.10;;
17372;SDS011;8803;48.116;11.590;2023-04-08T01:43:59;4.87;;;3.90;;
17372;SDS011;8803;48.116;11.590;2023-04-08T01:46:03;4.63;;;4.23;;
17372;SDS011;8803;48.116;11.590;2023-04-08T01:48:17;4.97;;;3.70;;
17372;SDS011;8803;48.116;11.590;2023-04-08T01:50:22;4.43;;;3.80;;
17372;SDS011;8803;48.116;11.590;2023-04-08T01:52:36;4.30;;;3.90;;
17372;SDS011;8803;48.116;11.590;2023-04-08T01:54:42;4.80;;;4.23;;
17372;SDS011;8803;48.116;11.590;2023-04-08T01:56:56;5.63;;;4.47;;
17372;SDS011;8803;48.116;11.590;2023-04-08T01:59:01;4.60;;;4.20;;
17372;SDS011;8803;48.116;11.590;2023-04-08T02:01:09;4.00;;;3.60;;
17372;SDS011;8803;48.116;11.590;2023-04-08T02:03:16;5.40;;;4.40;;
17372;SDS011;8803;48.116;11.590;2023-04-08T02:05:22;5.20;;;4.70;;
17372;SDS011;8803;48.116;11.590;2023-04-08T02:07:26;4.83;;;4.33;;
17372;SDS011;8803;48.116;11.590;2023-04-08T02:09:30;6.70;;;4.20;;
17372;SDS011;8803;48.116;11.590;2023-04-08T02:11:34;5.40;;;4.43;;
17372;SDS011;8803;48.116;11.590;2023-04-08T02:13:38;5.30;;;4.70;;
17372;SDS011;8803;48.116;11.590;2023-04-08T02:15:42;4.87;;;4.37;;
17372;SDS011;8803;48.116;11.590;2023-04-08T02:17:59;4.57;;;4.17;;
17372;SDS011;8803;48.116;11.590;2023-04-08T02:20:05;5.27;;;4.07;;
17372;SDS011;8803;48.116;11.590;2023-04-08T02:22:15;4.63;;;4.10;;
17372;SDS011;8803;48.116;11.590;2023-04-08T02:24:20;4.80;;;4.13;;
17372;SDS011;8803;48.116;11.590;2023-04-08T02:26:25;4.03;;;3.60;;
17372;SDS011;8803;48.116;11.590;2023-04-08T02:28:41;6.27;;;4.07;;
17372;SDS011;8803;48.116;11.590;2023-04-08T02:30:47;5.17;;;4.20;;
17372;SDS011;8803;48.116;11.590;2023-04-08T02:32:51;5.53;;;4.30;;
17372;SDS011;8803;48.116;11.590;2023-04-08T02:35:05;5.43;;;4.30;;
17372;SDS011;8803;48.116;11.590;2023-04-08T02:37:10;4.47;;;4.07;;
17372;SDS011;8803;48.116;11.590;2023-04-08T02:39:31;4.33;;;3.93;;
17372;SDS011;8803;48.116;11.590;2023-04-08T02:41:35;6.40;;;4.40;;
17372;SDS011;8803;48.116;11.590;2023-04-08T02:43:39;4.57;;;3.83;;
17372;SDS011;8803;48.116;11.590;2023-04-08T02:45:43;4.73;;;4.33;;
17372;SDS011;8803;48.116;11.590;2023-04-08T02:47:57;4.90;;;4.40;;
17372;SDS011;8803;48.116;11.590;2023-04-08T02:50:02;5.00;;;4.47;;
17372;SDS011;8803;48.116;11.590;2023-04-08T02:52:14;5.03;;;4.53;;
17372;SDS011;8803;48.116;11.590;2023-04-08T02:54:18;5.27;;;4.77;;
17372;SDS011;8803;48.116;11.590;2023-04-08T02:56:22;6.00;;;4.27;;
17372;SDS011;8803;48.116;11.590;2023-04-08T02:58:36;5.93;;;4.13;;
17372;SDS011;8803;48.116;11.590;2023-04-08T03:00:40;4.47;;;3.90;;
17372;SDS011;8803;48.116;11.590;2023-04-08T03:02:44;4.93;;;4.37;;
17372;SDS011;8803;48.116;11.590;2023-04-08T03:04:47;4.83;;;4.43;;
17372;SDS011;8803;48.116;11.590;2023-04-08T03:07:02;4.57;;;4.17;;
17372;SDS011;8803;48.116;11.590;2023-04-08T03:09:06;4.90;;;4.40;;
17372;SDS011;8803;48.116;11.590;2023-04-08T03:11:22;6.63;;;4.90;;
17372;SDS011;8803;48.116;11.590;2023-04-08T03:13:26;5.57;;;5.07;;
17372;SDS011;8803;48.116;11.590;2023-04-08T03:17:43;7.23;;;4.80;;
17372;SDS011;8803;48.116;11.590;2023-04-08T03:19:47;6.40;;;4.83;;
17372;SDS011;8803;48.116;11.590;2023-04-08T03:21:51;5.33;;;4.90;;
17372;SDS011;8803;48.116;11.590;2023-04-08T03:23:55;6.97;;;5.00;;
17372;SDS011;8803;48.116;11.590;2023-04-08T03:25:58;6.13;;;4.77;;
17372;SDS011;8803;48.116;11.590;2023-04-08T03:28:02;5.30;;;4.80;;
17372;SDS011;8803;48.116;11.590;2023-04-08T03:30:17;5.07;;;4.37;;
17372;SDS011;8803;48.116;11.590;2023-04-08T03:32:21;5.30;;;4.80;;
17372;SDS011;8803;48.116;11.590;2023-04-08T03:34:25;5.60;;;4.60;;
17372;SDS011;8803;48.116;11.590;2023-04-08T03:36:28;4.40;;;4.00;;
17372;SDS011;8803;48.116;11.590;2023-04-08T03:38:41;5.17;;;4.67;;
17372;SDS011;8803;48.116;11.590;2023-04-08T03:40:46;5.20;;;4.70;;
17372;SDS011;8803;48.116;11.590;2023-04-08T03:42:50;5.60;;;5.10;;
17372;SDS011;8803;48.116;11.590;2023-04-08T03:47:05;5.17;;;4.67;;
17372;SDS011;8803;48.116;11.590;2023-04-08T03:49:09;7.47;;;5.30;;
17372;SDS011;8803;48.116;11.590;2023-04-08T03:53:26;6.20;;;5.40;;
17372;SDS011;8803;48.116;11.590;2023-04-08T03:55:29;6.23;;;5.07;;
17372;SDS011;8803;48.116;11.590;2023-04-08T03:57:33;6.90;;;5.00;;
17372;SDS011;8803;48.116;11.590;2023-04-08T03:59:37;5.67;;;5.17;;
17372;SDS011;8803;48.116;11.590;2023-04-08T04:01:51;5.70;;;5.20;;
17372;SDS011;8803;48.116;11.590;2023-04-08T04:03:55;5.47;;;4.93;;
17372;SDS011;8803;48.116;11.590;2023-04-08T04:06:08;5.97;;;5.33;;
17372;SDS011;8803;48.116;11.590;2023-04-08T04:08:11;5.53;;;5.03;;
17372;SDS011;8803;48.116;11.590;2023-04-08T04:10:15;6.23;;;5.63;;
17372;SDS011;8803;48.116;11.590;2023-04-08T04:12:30;5.50;;;4.90;;
17372;SDS011;8803;48.116;11.590;2023-04-08T04:14:33;6.00;;;5.40;;
17372;SDS011;8803;48.116;11.590;2023-04-08T04:16:46;6.00;;;5.40;;
17372;SDS011;8803;48.116;11.590;2023-04-08T04:18:51;6.30;;;5.70;;
17372;SDS011;8803;48.116;11.590;2023-04-08T04:20:55;6.07;;;5.23;;
17372;SDS011;8803;48.116;11.590;2023-04-08T04:22:59;6.70;;;6.07;;
17372;SDS011;8803;48.116;11.590;2023-04-08T04:27:14;6.43;;;5.47;;
17372;SDS011;8803;48.116;11.590;2023-04-08T04:29:18;6.13;;;5.63;;
17372;SDS011;8803;48.116;11.590;2023-04-08T04:31:22;6.87;;;6.10;;
17372;SDS011;8803;48.116;11.590;2023-04-08T04:33:35;6.23;;;5.63;;
17372;SDS011;8803;48.116;11.590;2023-04-08T04:35:39;6.27;;;5.67;;
17372;SDS011;8803;48.116;11.590;2023-04-08T04:37:44;8.07;;;6.57;;
17372;SDS011;8803;48.116;11.590;2023-04-08T04:39:57;6.60;;;5.93;;
17372;SDS011;8803;48.116;11.590;2023-04-08T04:42:01;6.73;;;6.03;;
17372;SDS011;8803;48.116;11.590;2023-04-08T04:44:15;7.40;;;6.33;;
17372;SDS011;8803;48.116;11.590;2023-04-08T04:46:19;8.40;;;6.87;;
17372;SDS011;8803;48.116;11.590;2023-04-08T04:48:32;7.67;;;6.97;;
17372;SDS011;8803;48.116;11.590;2023-04-08T04:50:36;7.23;;;6.50;;
17372;SDS011;8803;48.116;11.590;2023-04-08T04:52:39;7.27;;;6.57;;
17372;SDS011;8803;48.116;11.590;2023-04-08T04:54:43;7.27;;;6.57;;
17372;SDS011;8803;48.116;11.590;2023-04-08T04:56:56;8.60;;;6.57;;
17372;SDS011;8803;48.116;11.590;2023-04-08T04:59:01;7.10;;;6.30;;
17372;SDS011;8803;48.116;11.590;2023-04-08T05:01:05;8.73;;;7.37;;
17372;SDS011;8803;48.116;11.590;2023-04-08T05:03:09;7.83;;;7.03;;
17372;SDS011;8803;48.116;11.590;2023-04-08T05:05:13;8.60;;;7.53;;
17372;SDS011;8803;48.116;11.590;2023-04-08T05:07:27;8.73;;;7.57;;
17372;SDS011;8803;48.116;11.590;2023-04-08T05:09:30;8.13;;;7.37;;
17372;SDS011;8803;48.116;11.590;2023-04-08T05:11:43;8.80;;;7.83;;
17372;SDS011;8803;48.116;11.590;2023-04-08T05:13:47;9.83;;;8.67;;
17372;SDS011;8803;48.116;11.590;2023-04-08T05:15:51;8.93;;;7.90;;
17372;SDS011;8803;48.116;11.590;2023-04-08T05:18:03;9.17;;;8.27;;
17372;SDS011;8803;48.116;11.590;2023-04-08T05:20:08;9.70;;;8.70;;
17372;SDS011;8803;48.116;11.590;2023-04-08T05:22:12;9.47;;;8.47;;
17372;SDS011;8803;48.116;11.590;2023-04-08T05:24:16;10.10;;;8.53;;
17372;SDS011;8803;48.116;11.590;2023-04-08T05:26:20;9.93;;;8.60;;
17372;SDS011;8803;48.116;11.590;2023-04-08T05:28:24;10.60;;;9.50;;
17372;SDS011;8803;48.116;11.590;2023-04-08T05:30:37;9.17;;;8.27;;
17372;SDS011;8803;48.116;11.590;2023-04-08T05:32:41;10.10;;;8.93;;
17372;SDS011;8803;48.116;11.590;2023-04-08T05:34:44;9.83;;;8.53;;
17372;SDS011;8803;48.116;11.590;2023-04-08T05:36:58;9.43;;;8.33;;
17372;SDS011;8803;48.116;11.590;2023-04-08T05:39:02;9.73;;;8.83;;
17372;SDS011;8803;48.116;11.590;2023-04-08T05:41:16;9.47;;;7.77;;
17372;SDS011;8803;48.116;11.590;2023-04-08T05:43:20;10.40;;;8.83;;
17372;SDS011;8803;48.116;11.590;2023-04-08T05:45:32;10.20;;;9.17;;
17372;SDS011;8803;48.116;11.590;2023-04-08T05:47:36;9.77;;;8.77;;
17372;SDS011;8803;48.116;11.590;2023-04-08T05:51:52;10.87;;;9.17;;
17372;SDS011;8803;48.116;11.590;2023-04-08T05:53:56;9.80;;;8.87;;
17372;SDS011;8803;48.116;11.590;2023-04-08T05:56:09;9.63;;;8.57;;
17372;SDS011;8803;48.116;11.590;2023-04-08T05:58:13;10.63;;;9.63;;
17372;SDS011;8803;48.116;11.590;2023-04-08T06:00:16;10.27;;;9.20;;
17372;SDS011;8803;48.116;11.590;2023-04-08T06:02:21;11.00;;;8.50;;
17372;SDS011;8803;48.116;11.590;2023-04-08T06:04:37;10.70;;;9.60;;
17372;SDS011;8803;48.116;11.590;2023-04-08T06:06:41;11.03;;;9.90;;
17372;SDS011;8803;48.116;11.590;2023-04-08T06:08:55;10.97;;;8.70;;
17372;SDS011;8803;48.116;11.590;2023-04-08T06:10:59;10.07;;;9.07;;
17372;SDS011;8803;48.116;11.590;2023-04-08T06:13:04;10.83;;;9.70;;
17372;SDS011;8803;48.116;11.590;2023-04-08T06:17:19;10.30;;;9.13;;
17372;SDS011;8803;48.116;11.590;2023-04-08T06:19:23;9.77;;;8.80;;
17372;SDS011;8803;48.116;11.590;2023-04-08T06:21:27;10.53;;;9.43;;
17372;SDS011;8803;48.116;11.590;2023-04-08T06:23:31;11.47;;;9.40;;
17372;SDS011;8803;48.116;11.590;2023-04-08T06:25:34;11.40;;;9.50;;
17372;SDS011;8803;48.116;11.590;2023-04-08T06:27:48;11.20;;;9.97;;
17372;SDS011;8803;48.116;11.590;2023-04-08T06:29:52;11.37;;;10.17;;
17372;SDS011;8803;48.116;11.590;2023-04-08T06:31:56;9.87;;;8.87;;
17372;SDS011;8803;48.116;11.590;2023-04-08T06:34:00;9.90;;;8.80;;
17372;SDS011;8803;48.116;11.590;2023-04-08T06:36:05;10.57;;;9.47;;
17372;SDS011;8803;48.116;11.590;2023-04-08T06:38:18;10.53;;;9.03;;
17372;SDS011;8803;48.116;11.590;2023-04-08T06:40:22;9.97;;;8.97;;
17372;SDS011;8803;48.116;11.590;2023-04-08T06:42:26;11.27;;;9.90;;
17372;SDS011;8803;48.116;11.590;2023-04-08T06:44:29;10.63;;;9.27;;
17372;SDS011;8803;48.116;11.590;2023-04-08T06:46:33;10.30;;;9.30;;
17372;SDS011;8803;48.116;11.590;2023-04-08T06:48:46;11.10;;;9.87;;
17372;SDS011;8803;48.116;11.590;2023-04-08T06:50:50;11.77;;;10.57;;
17372;SDS011;8803;48.116;11.590;2023-04-08T06:52:53;10.43;;;9.37;;
17372;SDS011;8803;48.116;11.590;2023-04-08T06:54:57;12.87;;;11.50;;
17372;SDS011;8803;48.116;11.590;2023-04-08T06:57:13;12.77;;;11.43;;
17372;SDS011;8803;48.116;11.590;2023-04-08T06:59:16;16.70;;;12.00;;
17372;SDS011;8803;48.116;11.590;2023-04-08T07:01:20;12.10;;;10.63;;
17372;SDS011;8803;48.116;11.590;2023-04-08T07:03:36;11.87;;;10.33;;
17372;SDS011;8803;48.116;11.590;2023-04-08T07:05:40;11.30;;;10.20;;
17372;SDS011;8803;48.116;11.590;2023-04-08T07:07:54;13.73;;;11.60;;
17372;SDS011;8803;48.116;11.590;2023-04-08T07:09:58;11.97;;;10.77;;
17372;SDS011;8803;48.116;11.590;2023-04-08T07:12:10;11.57;;;10.37;;
17372;SDS011;8803;48.116;11.590;2023-04-08T07:14:14;12.13;;;10.87;;
17372;SDS011;8803;48.116;11.590;2023-04-08T07:16:19;12.43;;;11.13;;
17372;SDS011;8803;48.116;11.590;2023-04-08T07:18:33;13.40;;;12.10;;
17372;SDS011;8803;48.116;11.590;2023-04-08T07:20:37;13.00;;;11.63;;
17372;SDS011;8803;48.116;11.590;2023-04-08T07:22:42;11.97;;;10.50;;
17372;SDS011;8803;48.116;11.590;2023-04-08T07:24:46;12.40;;;11.10;;
17372;SDS011;8803;48.116;11.590;2023-04-08T07:27:00;14.63;;;13.17;;
17372;SDS011;8803;48.116;11.590;2023-04-08T07:29:04;12.43;;;11.33;;
17372;SDS011;8803;48.116;11.590;2023-04-08T07:31:11;17.63;;;14.03;;
17372;SDS011;8803;48.116;11.590;2023-04-08T07:33:24;17.53;;;14.93;;
17372;SDS011;8803;48.116;11.590;2023-04-08T07:35:28;14.63;;;12.87;;
17372;SDS011;8803;48.116;11.590;2023-04-08T07:37:41;15.40;;;13.90;;
17372;SDS011;8803;48.116;11.590;2023-04-08T07:39:45;13.07;;;11.67;;
17372;SDS011;8803;48.116;11.590;2023-04-08T07:41:59;13.33;;;12.03;;
17372;SDS011;8803;48.116;11.590;2023-04-08T07:44:03;13.67;;;12.13;;
17372;SDS011;8803;48.116;11.590;2023-04-08T07:46:16;13.67;;;12.27;;
17372;SDS011;8803;48.116;11.590;2023-04-08T07:48:20;13.87;;;12.30;;
17372;SDS011;8803;48.116;11.590;2023-04-08T07:50:35;14.13;;;11.87;;
17372;SDS011;8803;48.116;11.590;2023-04-08T07:52:39;11.83;;;10.47;;
17372;SDS011;8803;48.116;11.590;2023-04-08T07:54:42;12.10;;;10.90;;
17372;SDS011;8803;48.116;11.590;2023-04-08T07:56:58;12.30;;;11.00;;
17372;SDS011;8803;48.116;11.590;2023-04-08T07:59:02;12.27;;;10.97;;
17372;SDS011;8803;48.116;11.590;2023-04-08T08:01:13;13.37;;;11.30;;
17372;SDS011;8803;48.116;11.590;2023-04-08T08:03:19;12.07;;;9.93;;
17372;SDS011;8803;48.116;11.590;2023-04-08T08:05:23;12.93;;;10.57;;
17372;SDS011;8803;48.116;11.590;2023-04-08T08:07:36;11.07;;;9.83;;
17372;SDS011;8803;48.116;11.590;2023-04-08T08:09:40;11.43;;;10.17;;
17372;SDS011;8803;48.116;11.590;2023-04-08T08:11:44;10.70;;;9.60;;
17372;SDS011;8803;48.116;11.590;2023-04-08T08:13:48;11.30;;;10.13;;
17372;SDS011;8803;48.116;11.590;2023-04-08T08:15:51;11.30;;;10.10;;
17372;SDS011;8803;48.116;11.590;2023-04-08T08:17:55;11.43;;;10.00;;
17372;SDS011;8803;48.116;11.590;2023-04-08T08:19:59;11.00;;;9.90;;
17372;SDS011;8803;48.116;11.590;2023-04-08T08:22:12;11.07;;;9.93;;
17372;SDS011;8803;48.116;11.590;2023-04-08T08:24:16;11.23;;;10.00;;
17372;SDS011;8803;48.116;11.590;2023-04-08T08:26:20;13.10;;;9.87;;
17372;SDS011;8803;48.116;11.590;2023-04-08T08:28:23;10.90;;;9.80;;
17372;SDS011;8803;48.116;11.590;2023-04-08T08:30:36;12.20;;;10.27;;
17372;SDS011;8803;48.116;11.590;2023-04-08T08:34:52;11.07;;;9.83;;
17372;SDS011;8803;48.116;11.590;2023-04-08T08:36:56;12.67;;;11.37;;
17372;SDS011;8803;48.116;11.590;2023-04-08T08:39:10;11.47;;;10.27;;
17372;SDS011;8803;48.116;11.590;2023-04-08T08:41:14;11.17;;;10.07;;
17372;SDS011;8803;48.116;11.590;2023-04-08T08:43:17;11.10;;;9.77;;
17372;SDS011;8803;48.116;11.590;2023-04-08T08:45:21;12.03;;;10.73;;
17372;SDS011;8803;48.116;11.590;2023-04-08T08:47:35;11.03;;;9.87;;
17372;SDS011;8803;48.116;11.590;2023-04-08T08:49:38;13.77;;;11.60;;
17372;SDS011;8803;48.116;11.590;2023-04-08T08:51:43;11.63;;;10.43;;
17372;SDS011;8803;48.116;11.590;2023-04-08T08:53:48;13.50;;;11.03;;
17372;SDS011;8803;48.116;11.590;2023-04-08T08:55:51;13.60;;;12.20;;
17372;SDS011;8803;48.116;11.590;2023-04-08T08:58:04;11.57;;;9.90;;
17372;SDS011;8803;48.116;11.590;2023-04-08T09:00:09;12.30;;;10.07;;
17372;SDS011;8803;48.116;11.590;2023-04-08T09:02:23;10.90;;;9.80;;
17372;SDS011;8803;48.116;11.590;2023-04-08T09:04:28;11.33;;;10.13;;
17372;SDS011;8803;48.116;11.590;2023-04-08T09:06:32;12.53;;;11.03;;
17372;SDS011;8803;48.116;11.590;2023-04-08T09:08:48;11.53;;;9.73;;
17372;SDS011;8803;48.116;11.590;2023-04-08T09:10:52;11.07;;;9.97;;
17372;SDS011;8803;48.116;11.590;2023-04-08T09:12:56;12.77;;;11.43;;
17372;SDS011;8803;48.116;11.590;2023-04-08T09:15:10;13.23;;;11.10;;
17372;SDS011;8803;48.116;11.590;2023-04-08T09:17:14;11.17;;;9.90;;
17372;SDS011;8803;48.116;11.590;2023-04-08T09:19:28;12.13;;;10.93;;
17372;SDS011;8803;48.116;11.590;2023-04-08T09:21:31;12.33;;;10.97;;
17372;SDS011;8803;48.116;11.590;2023-04-08T09:23:46;12.37;;;10.73;;
17372;SDS011;8803;48.116;11.590;2023-04-08T09:25:52;12.10;;;10.60;;
17372;SDS011;8803;48.116;11.590;2023-04-08T09:28:06;11.00;;;9.90;;
17372;SDS011;8803;48.116;11.590;2023-04-08T09:30:22;10.53;;;9.43;;
17372;SDS011;8803;48.116;11.590;2023-04-08T09:32:46;11.83;;;9.80;;
17372;SDS011;8803;48.116;11.590;2023-04-08T09:34:51;11.03;;;9.77;;
17372;SDS011;8803;48.116;11.590;2023-04-08T09:37:03;11.30;;;10.20;;
17372;SDS011;8803;48.116;11.590;2023-04-08T09:39:07;10.50;;;8.83;;
17372;SDS011;8803;48.116;11.590;2023-04-08T09:41:12;10.73;;;9.63;;
17372;SDS011;8803;48.116;11.590;2023-04-08T09:43:25;10.50;;;9.43;;
17372;SDS011;8803;48.116;11.590;2023-04-08T09:45:29;12.17;;;10.23;;
17372;SDS011;8803;48.116;11.590;2023-04-08T09:47:46;11.43;;;9.63;;
17372;SDS011;8803;48.116;11.590;2023-04-08T09:50:00;9.77;;;8.77;;
17372;SDS011;8803;48.116;11.590;2023-04-08T09:52:06;11.17;;;9.07;;
17372;SDS011;8803;48.116;11.590;2023-04-08T09:54:13;10.50;;;9.23;;
17372;SDS011;8803;48.116;11.590;2023-04-08T09:56:18;10.67;;;9.47;;
17372;SDS011;8803;48.116;11.590;2023-04-08T09:58:38;10.10;;;9.03;;
17372;SDS011;8803;48.116;11.590;2023-04-08T10:00:44;10.53;;;9.43;;
17372;SDS011;8803;48.116;11.590;2023-04-08T10:03:01;10.17;;;9.17;;
17372;SDS011;8803;48.116;11.590;2023-04-08T10:07:20;9.97;;;8.97;;
17372;SDS011;8803;48.116;11.590;2023-04-08T10:09:24;9.50;;;8.50;;
17372;SDS011;8803;48.116;11.590;2023-04-08T10:11:29;11.37;;;10.10;;
17372;SDS011;8803;48.116;11.590;2023-04-08T10:13:42;10.77;;;9.73;;
17372;SDS011;8803;48.116;11.590;2023-04-08T10:15:48;10.40;;;9.37;;
17372;SDS011;8803;48.116;11.590;2023-04-08T10:20:42;11.23;;;10.07;;
17372;SDS011;8803;48.116;11.590;2023-04-08T10:22:47;13.80;;;10.80;;
17372;SDS011;8803;48.116;11.590;2023-04-08T10:27:43;12.27;;;10.50;;
17372;SDS011;8803;48.116;11.590;2023-04-08T10:29:47;14.30;;;11.07;;
17372;SDS011;8803;48.116;11.590;2023-04-08T10:31:52;12.50;;;11.20;;
17372;SDS011;8803;48.116;11.590;2023-04-08T10:33:57;12.07;;;10.73;;
17372;SDS011;8803;48.116;11.590;2023-04-08T10:36:15;13.97;;;11.33;;
17372;SDS011;8803;48.116;11.590;2023-04-08T10:38:19;12.30;;;11.10;;
17372;SDS011;8803;48.116;11.590;2023-04-08T10:40:23;12.60;;;10.77;;
17372;SDS011;8803;48.116;11.590;2023-04-08T10:42:35;11.57;;;10.17;;
17372;SDS011;8803;48.116;11.590;2023-04-08T10:44:43;13.07;;;11.77;;
17372;SDS011;8803;48.116;11.590;2023-04-08T10:46:56;11.93;;;10.60;;
17372;SDS011;8803;48.116;11.590;2023-04-08T10:49:01;13.90;;;11.87;;
17372;SDS011;8803;48.116;11.590;2023-04-08T10:51:05;12.43;;;10.90;;
17372;SDS011;8803;48.116;11.590;2023-04-08T10:53:08;12.73;;;11.43;;
17372;SDS011;8803;48.116;11.590;2023-04-08T10:55:12;12.70;;;11.50;;
17372;SDS011;8803;48.116;11.590;2023-04-08T10:57:25;12.00;;;10.53;;
17372;SDS011;8803;48.116;11.590;2023-04-08T10:59:29;14.10;;;12.13;;
17372;SDS011;8803;48.116;11.590;2023-04-08T11:01:40;12.07;;;10.87;;
17372;SDS011;8803;48.116;11.590;2023-04-08T11:03:44;12.17;;;10.97;;
17372;SDS011;8803;48.116;11.590;2023-04-08T11:08:01;12.70;;;11.40;;
17372;SDS011;8803;48.116;11.590;2023-04-08T11:10:07;17.67;;;13.07;;
17372;SDS011;8803;48.116;11.590;2023-04-08T11:12:20;13.00;;;11.60;;
17372;SDS011;8803;48.116;11.590;2023-04-08T11:14:24;12.70;;;11.40;;
17372;SDS011;8803;48.116;11.590;2023-04-08T11:16:38;14.67;;;13.17;;
17372;SDS011;8803;48.116;11.590;2023-04-08T11:18:42;13.77;;;12.33;;
17372;SDS011;8803;48.116;11.590;2023-04-08T11:20:57;12.70;;;11.40;;
17372;SDS011;8803;48.116;11.590;2023-04-08T11:23:02;13.47;;;12.17;;
17372;SDS011;8803;48.116;11.590;2023-04-08T11:25:07;13.30;;;11.50;;
17372;SDS011;8803;48.116;11.590;2023-04-08T11:27:20;14.87;;;12.47;;
17372;SDS011;8803;48.116;11.590;2023-04-08T11:29:26;14.37;;;12.87;;
17372;SDS011;8803;48.116;11.590;2023-04-08T11:31:41;13.80;;;12.30;;
17372;SDS011;8803;48.116;11.590;2023-04-08T11:33:47;14.83;;;13.20;;
17372;SDS011;8803;48.116;11.590;2023-04-08T11:35:53;14.83;;;13.17;;
17372;SDS011;8803;48.116;11.590;2023-04-08T11:38:09;14.70;;;13.30;;
17372;SDS011;8803;48.116;11.590;2023-04-08T11:40:18;14.53;;;13.07;;
17372;SDS011;8803;48.116;11.590;2023-04-08T11:42:31;13.97;;;12.57;;
17372;SDS011;8803;48.116;11.590;2023-04-08T11:44:35;14.97;;;13.03;;
17372;SDS011;8803;48.116;11.590;2023-04-08T11:46:52;15.73;;;13.40;;
17372;SDS011;8803;48.116;11.590;2023-04-08T11:48:57;13.83;;;12.47;;
17372;SDS011;8803;48.116;11.590;2023-04-08T11:51:12;14.37;;;12.40;;
17372;SDS011;8803;48.116;11.590;2023-04-08T11:53:16;12.80;;;11.50;;
17372;SDS011;8803;48.116;11.590;2023-04-08T11:55:24;13.53;;;12.20;;
17372;SDS011;8803;48.116;11.590;2023-04-08T11:57:38;13.83;;;12.37;;
17372;SDS011;8803;48.116;11.590;2023-04-08T11:59:42;13.07;;;11.77;;
17372;SDS011;8803;48.116;11.590;2023-04-08T12:01:45;13.40;;;12.00;;
17372;SDS011;8803;48.116;11.590;2023-04-08T12:03:53;13.67;;;11.17;;
17372;SDS011;8803;48.116;11.590;2023-04-08T12:05:58;12.47;;;11.17;;
17372;SDS011;8803;48.116;11.590;2023-04-08T12:08:11;12.17;;;10.97;;
17372;SDS011;8803;48.116;11.590;2023-04-08T12:10:15;12.67;;;11.37;;
17372;SDS011;8803;48.116;11.590;2023-04-08T12:12:19;14.23;;;12.17;;
17372;SDS011;8803;48.116;11.590;2023-04-08T12:14:22;12.57;;;11.40;;
17372;SDS011;8803;48.116;11.590;2023-04-08T12:16:26;13.30;;;11.90;;
17372;SDS011;8803;48.116;11.590;2023-04-08T12:18:39;13.23;;;11.83;;
17372;SDS011;8803;48.116;11.590;2023-04-08T12:20:43;13.30;;;12.00;;
17372;SDS011;8803;48.116;11.590;2023-04-08T12:22:47;13.67;;;12.27;;
17372;SDS011;8803;48.116;11.590;2023-04-08T12:24:51;12.50;;;11.20;;
17372;SDS011;8803;48.116;11.590;2023-04-08T12:26:54;12.93;;;11.53;;
17372;SDS011;8803;48.116;11.590;2023-04-08T12:29:10;12.80;;;11.53;;
17372;SDS011;8803;48.116;11.590;2023-04-08T12:31:14;12.67;;;11.37;;
17372;SDS011;8803;48.116;11.590;2023-04-08T12:33:18;11.43;;;10.23;;
17372;SDS011;8803;48.116;11.590;2023-04-08T12:37:34;12.33;;;10.03;;
17372;SDS011;8803;48.116;11.590;2023-04-08T12:39:38;11.20;;;10.10;;
17372;SDS011;8803;48.116;11.590;2023-04-08T12:41:42;10.63;;;9.53;;
17372;SDS011;8803;48.116;11.590;2023-04-08T12:43:46;11.30;;;10.13;;
17372;SDS011;8803;48.116;11.590;2023-04-08T12:45:49;11.07;;;9.97;;
17372;SDS011;8803;48.116;11.590;2023-04-08T12:48:04;10.87;;;9.77;;
17372;SDS011;8803;48.116;11.590;2023-04-08T12:50:09;10.17;;;9.23;;
17372;SDS011;8803;48.116;11.590;2023-04-08T12:52:12;10.40;;;9.30;;
17372;SDS011;8803;48.116;11.590;2023-04-08T12:54:16;10.30;;;9.23;;
17372;SDS011;8803;48.116;11.590;2023-04-08T12:56:20;10.17;;;9.17;;
17372;SDS011;8803;48.116;11.590;2023-04-08T12:58:24;10.70;;;9.50;;
17372;SDS011;8803;48.116;11.590;2023-04-08T13:00:37;9.70;;;8.70;;
17372;SDS011;8803;48.116;11.590;2023-04-08T13:02:43;8.30;;;7.50;;
17372;SDS011;8803;48.116;11.590;2023-04-08T13:04:46;8.90;;;8.00;;
17372;SDS011;8803;48.116;11.590;2023-04-08T13:06:52;8.90;;;8.00;;
17372;SDS011;8803;48.116;11.590;2023-04-08T13:09:05;10.27;;;9.17;;